sensor_id;sensor_type;location;lat;lon;timestamp;P1;durP1;ratioP1;P2;durP2;ratioP2
77076;SDS011;66003;52.286;104.306;2023-08-21T00:00:25;9.55;;;3.83;;
77076;SDS011;66003;52.286;104.306;2023-08-21T00:02:51;11.10;;;4.15;;
77076;SDS011;66003;52.286;104.306;2023-08-21T00:05:17;11.20;;;5.13;;
77076;SDS011;66003;52.286;104.306;2023-08-21T00:07:44;8.50;;;3.63;;
77076;SDS011;66003;52.286;104.306;2023-08-21T00:10:12;7.15;;;3.53;;
77076;SDS011;66003;52.286;104.306;2023-08-21T00:12:39;8.10;;;3.63;;
77076;SDS011;66003;52.286;104.306;2023-08-21T00:17:31;10.88;;;4.93;;
77076;SDS011;66003;52.286;104.306;2023-08-21T00:19:58;10.15;;;3.97;;
77076;SDS011;66003;52.286;104.306;2023-08-21T00:22:24;9.02;;;4.13;;
77076;SDS011;66003;52.286;104.306;2023-08-21T00:24:50;6.15;;;3.53;;
77076;SDS011;66003;52.286;104.306;2023-08-21T00:27:16;7.47;;;4.28;;
77076;SDS011;66003;52.286;104.306;2023-08-21T00:29:42;7.97;;;4.15;;
77076;SDS011;66003;52.286;104.306;2023-08-21T00:34:34;7.97;;;4.30;;
77076;SDS011;66003;52.286;104.306;2023-08-21T00:37:00;6.90;;;4.32;;
77076;SDS011;66003;52.286;104.306;2023-08-21T00:39:26;12.43;;;5.93;;
77076;SDS011;66003;52.286;104.306;2023-08-21T00:41:53;12.38;;;5.05;;
77076;SDS011;66003;52.286;104.306;2023-08-21T00:46:45;15.65;;;8.43;;
77076;SDS011;66003;52.286;104.306;2023-08-21T00:49:11;14.77;;;8.75;;
77076;SDS011;66003;52.286;104.306;2023-08-21T00:51:38;17.95;;;8.20;;
77076;SDS011;66003;52.286;104.306;2023-08-21T00:54:04;17.95;;;9.07;;
77076;SDS011;66003;52.286;104.306;2023-08-21T00:56:30;22.95;;;9.07;;
77076;SDS011;66003;52.286;104.306;2023-08-21T00:58:57;18.08;;;9.65;;
77076;SDS011;66003;52.286;104.306;2023-08-21T01:01:23;21.38;;;9.95;;
77076;SDS011;66003;52.286;104.306;2023-08-21T01:03:53;18.05;;;9.45;;
77076;SDS011;66003;52.286;104.306;2023-08-21T01:11:42;19.60;;;10.13;;
77076;SDS011;66003;52.286;104.306;2023-08-21T01:14:36;23.08;;;12.63;;
77076;SDS011;66003;52.286;104.306;2023-08-21T01:17:07;23.92;;;12.23;;
77076;SDS011;66003;52.286;104.306;2023-08-21T01:19:41;25.02;;;10.38;;
77076;SDS011;66003;52.286;104.306;2023-08-21T01:22:13;21.13;;;10.55;;
77076;SDS011;66003;52.286;104.306;2023-08-21T01:24:40;20.85;;;11.38;;
77076;SDS011;66003;52.286;104.306;2023-08-21T01:27:06;19.88;;;11.07;;
77076;SDS011;66003;52.286;104.306;2023-08-21T01:29:32;21.02;;;11.10;;
77076;SDS011;66003;52.286;104.306;2023-08-21T01:32:07;21.83;;;10.93;;
77076;SDS011;66003;52.286;104.306;2023-08-21T01:34:40;18.73;;;11.18;;
77076;SDS011;66003;52.286;104.306;2023-08-21T01:37:07;18.65;;;11.38;;
77076;SDS011;66003;52.286;104.306;2023-08-21T01:39:34;15.75;;;10.20;;
77076;SDS011;66003;52.286;104.306;2023-08-21T01:42:00;17.35;;;11.57;;
77076;SDS011;66003;52.286;104.306;2023-08-21T01:44:26;20.17;;;12.13;;
77076;SDS011;66003;52.286;104.306;2023-08-21T01:46:53;17.95;;;11.93;;
77076;SDS011;66003;52.286;104.306;2023-08-21T01:49:19;18.88;;;11.82;;
77076;SDS011;66003;52.286;104.306;2023-08-21T01:51:47;18.77;;;11.77;;
77076;SDS011;66003;52.286;104.306;2023-08-21T01:54:15;17.27;;;12.45;;
77076;SDS011;66003;52.286;104.306;2023-08-21T01:56:41;16.60;;;11.90;;
77076;SDS011;66003;52.286;104.306;2023-08-21T01:59:07;17.08;;;12.52;;
77076;SDS011;66003;52.286;104.306;2023-08-21T02:01:34;18.75;;;14.10;;
77076;SDS011;66003;52.286;104.306;2023-08-21T02:04:02;17.67;;;14.18;;
77076;SDS011;66003;52.286;104.306;2023-08-21T02:06:40;18.63;;;13.32;;
77076;SDS011;66003;52.286;104.306;2023-08-21T02:09:07;16.30;;;13.18;;
77076;SDS011;66003;52.286;104.306;2023-08-21T02:11:37;19.35;;;14.45;;
77076;SDS011;66003;52.286;104.306;2023-08-21T02:14:03;17.40;;;14.32;;
77076;SDS011;66003;52.286;104.306;2023-08-21T02:16:29;17.88;;;14.75;;
77076;SDS011;66003;52.286;104.306;2023-08-21T02:18:56;18.48;;;13.23;;
77076;SDS011;66003;52.286;104.306;2023-08-21T02:21:22;20.90;;;15.25;;
77076;SDS011;66003;52.286;104.306;2023-08-21T02:23:48;20.23;;;16.60;;
77076;SDS011;66003;52.286;104.306;2023-08-21T02:26:15;22.00;;;16.08;;
77076;SDS011;66003;52.286;104.306;2023-08-21T02:28:42;21.88;;;13.80;;
77076;SDS011;66003;52.286;104.306;2023-08-21T02:31:09;23.88;;;19.27;;
77076;SDS011;66003;52.286;104.306;2023-08-21T02:33:36;22.35;;;16.45;;
77076;SDS011;66003;52.286;104.306;2023-08-21T02:36:03;25.15;;;17.42;;
77076;SDS011;66003;52.286;104.306;2023-08-21T02:38:32;21.35;;;13.93;;
77076;SDS011;66003;52.286;104.306;2023-08-21T02:40:59;22.20;;;17.13;;
77076;SDS011;66003;52.286;104.306;2023-08-21T02:43:25;21.23;;;16.00;;
77076;SDS011;66003;52.286;104.306;2023-08-21T02:45:51;21.33;;;17.20;;
77076;SDS011;66003;52.286;104.306;2023-08-21T02:48:17;26.92;;;19.13;;
77076;SDS011;66003;52.286;104.306;2023-08-21T02:50:43;23.85;;;18.60;;
77076;SDS011;66003;52.286;104.306;2023-08-21T02:53:11;22.77;;;17.92;;
77076;SDS011;66003;52.286;104.306;2023-08-21T02:55:37;22.63;;;19.17;;
77076;SDS011;66003;52.286;104.306;2023-08-21T02:58:03;25.67;;;18.40;;
77076;SDS011;66003;52.286;104.306;2023-08-21T03:00:29;28.48;;;18.02;;
77076;SDS011;66003;52.286;104.306;2023-08-21T03:02:55;21.50;;;15.43;;
77076;SDS011;66003;52.286;104.306;2023-08-21T03:05:21;22.52;;;17.10;;
77076;SDS011;66003;52.286;104.306;2023-08-21T03:07:48;19.10;;;14.13;;
77076;SDS011;66003;52.286;104.306;2023-08-21T03:10:14;22.92;;;14.80;;
77076;SDS011;66003;52.286;104.306;2023-08-21T03:12:40;23.45;;;15.68;;
77076;SDS011;66003;52.286;104.306;2023-08-21T03:15:06;22.77;;;16.17;;
77076;SDS011;66003;52.286;104.306;2023-08-21T03:17:33;22.08;;;14.43;;
77076;SDS011;66003;52.286;104.306;2023-08-21T03:19:59;22.42;;;14.23;;
77076;SDS011;66003;52.286;104.306;2023-08-21T03:22:25;18.67;;;12.98;;
77076;SDS011;66003;52.286;104.306;2023-08-21T03:24:51;20.63;;;13.20;;
77076;SDS011;66003;52.286;104.306;2023-08-21T03:27:18;18.33;;;13.27;;
77076;SDS011;66003;52.286;104.306;2023-08-21T03:29:44;20.38;;;14.07;;
77076;SDS011;66003;52.286;104.306;2023-08-21T03:32:16;18.40;;;11.77;;
77076;SDS011;66003;52.286;104.306;2023-08-21T03:34:43;18.65;;;11.82;;
77076;SDS011;66003;52.286;104.306;2023-08-21T03:37:09;23.20;;;14.27;;
77076;SDS011;66003;52.286;104.306;2023-08-21T03:39:36;23.05;;;13.00;;
77076;SDS011;66003;52.286;104.306;2023-08-21T03:42:02;14.88;;;10.30;;
77076;SDS011;66003;52.286;104.306;2023-08-21T03:44:29;13.07;;;8.43;;
77076;SDS011;66003;52.286;104.306;2023-08-21T03:46:55;15.45;;;9.75;;
77076;SDS011;66003;52.286;104.306;2023-08-21T03:49:21;12.32;;;7.68;;
77076;SDS011;66003;52.286;104.306;2023-08-21T03:51:47;12.43;;;8.50;;
77076;SDS011;66003;52.286;104.306;2023-08-21T03:54:13;10.00;;;6.18;;
77076;SDS011;66003;52.286;104.306;2023-08-21T03:56:39;11.48;;;7.00;;
77076;SDS011;66003;52.286;104.306;2023-08-21T03:59:06;12.05;;;5.20;;
77076;SDS011;66003;52.286;104.306;2023-08-21T04:01:32;8.07;;;6.15;;
77076;SDS011;66003;52.286;104.306;2023-08-21T04:03:58;10.98;;;5.78;;
77076;SDS011;66003;52.286;104.306;2023-08-21T04:06:24;16.05;;;5.65;;
77076;SDS011;66003;52.286;104.306;2023-08-21T04:08:50;7.82;;;4.93;;
77076;SDS011;66003;52.286;104.306;2023-08-21T04:11:16;7.95;;;5.13;;
77076;SDS011;66003;52.286;104.306;2023-08-21T04:13:43;13.45;;;6.30;;
77076;SDS011;66003;52.286;104.306;2023-08-21T04:16:09;11.45;;;6.15;;
77076;SDS011;66003;52.286;104.306;2023-08-21T04:18:37;9.57;;;6.50;;
77076;SDS011;66003;52.286;104.306;2023-08-21T04:21:04;12.50;;;6.97;;
77076;SDS011;66003;52.286;104.306;2023-08-21T04:23:31;10.98;;;6.05;;
77076;SDS011;66003;52.286;104.306;2023-08-21T04:26:00;14.35;;;6.53;;
77076;SDS011;66003;52.286;104.306;2023-08-21T04:28:29;11.50;;;7.50;;
77076;SDS011;66003;52.286;104.306;2023-08-21T04:30:58;12.77;;;8.30;;
77076;SDS011;66003;52.286;104.306;2023-08-21T04:33:25;17.52;;;8.63;;
77076;SDS011;66003;52.286;104.306;2023-08-21T04:35:52;14.63;;;7.75;;
77076;SDS011;66003;52.286;104.306;2023-08-21T04:38:18;12.27;;;7.68;;
77076;SDS011;66003;52.286;104.306;2023-08-21T04:40:44;13.52;;;9.15;;
77076;SDS011;66003;52.286;104.306;2023-08-21T04:43:10;12.65;;;7.90;;
77076;SDS011;66003;52.286;104.306;2023-08-21T04:45:36;12.13;;;8.38;;
77076;SDS011;66003;52.286;104.306;2023-08-21T04:48:05;14.63;;;9.85;;
77076;SDS011;66003;52.286;104.306;2023-08-21T04:50:31;14.30;;;9.80;;
77076;SDS011;66003;52.286;104.306;2023-08-21T04:52:57;15.20;;;10.73;;
77076;SDS011;66003;52.286;104.306;2023-08-21T04:55:23;14.48;;;8.48;;
77076;SDS011;66003;52.286;104.306;2023-08-21T04:57:50;14.77;;;10.63;;
77076;SDS011;66003;52.286;104.306;2023-08-21T05:00:16;16.25;;;9.80;;
77076;SDS011;66003;52.286;104.306;2023-08-21T05:02:42;16.25;;;9.38;;
77076;SDS011;66003;52.286;104.306;2023-08-21T05:05:08;14.32;;;10.55;;
77076;SDS011;66003;52.286;104.306;2023-08-21T05:07:35;11.65;;;7.75;;
77076;SDS011;66003;52.286;104.306;2023-08-21T05:10:01;7.75;;;5.68;;
77076;SDS011;66003;52.286;104.306;2023-08-21T05:12:30;8.40;;;6.00;;
77076;SDS011;66003;52.286;104.306;2023-08-21T05:14:56;8.50;;;5.43;;
77076;SDS011;66003;52.286;104.306;2023-08-21T05:17:23;7.38;;;4.75;;
77076;SDS011;66003;52.286;104.306;2023-08-21T05:19:50;7.68;;;5.93;;
77076;SDS011;66003;52.286;104.306;2023-08-21T05:22:17;7.68;;;5.68;;
77076;SDS011;66003;52.286;104.306;2023-08-21T05:24:43;9.30;;;6.43;;
77076;SDS011;66003;52.286;104.306;2023-08-21T05:27:09;7.32;;;4.75;;
77076;SDS011;66003;52.286;104.306;2023-08-21T05:29:35;7.78;;;6.20;;
77076;SDS011;66003;52.286;104.306;2023-08-21T05:32:01;11.35;;;8.35;;
77076;SDS011;66003;52.286;104.306;2023-08-21T05:34:27;9.75;;;5.70;;
77076;SDS011;66003;52.286;104.306;2023-08-21T05:36:53;9.05;;;3.88;;
77076;SDS011;66003;52.286;104.306;2023-08-21T05:39:20;6.75;;;4.40;;
77076;SDS011;66003;52.286;104.306;2023-08-21T05:41:46;13.10;;;5.75;;
77076;SDS011;66003;52.286;104.306;2023-08-21T05:44:12;10.68;;;6.07;;
77076;SDS011;66003;52.286;104.306;2023-08-21T05:46:38;7.35;;;5.03;;
77076;SDS011;66003;52.286;104.306;2023-08-21T05:49:04;8.02;;;4.07;;
77076;SDS011;66003;52.286;104.306;2023-08-21T05:51:30;13.93;;;5.70;;
77076;SDS011;66003;52.286;104.306;2023-08-21T05:53:56;8.63;;;4.10;;
77076;SDS011;66003;52.286;104.306;2023-08-21T05:56:22;7.80;;;4.28;;
77076;SDS011;66003;52.286;104.306;2023-08-21T05:58:49;5.38;;;2.70;;
77076;SDS011;66003;52.286;104.306;2023-08-21T06:01:15;6.70;;;5.15;;
77076;SDS011;66003;52.286;104.306;2023-08-21T06:03:41;11.20;;;6.60;;
77076;SDS011;66003;52.286;104.306;2023-08-21T06:06:08;5.90;;;4.93;;
77076;SDS011;66003;52.286;104.306;2023-08-21T06:08:35;3.95;;;2.50;;
77076;SDS011;66003;52.286;104.306;2023-08-21T06:11:01;3.88;;;2.30;;
77076;SDS011;66003;52.286;104.306;2023-08-21T06:13:28;7.47;;;4.70;;
77076;SDS011;66003;52.286;104.306;2023-08-21T06:15:54;4.22;;;2.65;;
77076;SDS011;66003;52.286;104.306;2023-08-21T06:18:20;2.92;;;2.53;;
77076;SDS011;66003;52.286;104.306;2023-08-21T06:20:46;4.20;;;2.55;;
77076;SDS011;66003;52.286;104.306;2023-08-21T06:23:12;3.15;;;2.78;;
77076;SDS011;66003;52.286;104.306;2023-08-21T06:25:38;3.85;;;2.83;;
77076;SDS011;66003;52.286;104.306;2023-08-21T06:28:04;8.23;;;3.28;;
77076;SDS011;66003;52.286;104.306;2023-08-21T06:30:31;4.55;;;2.72;;
77076;SDS011;66003;52.286;104.306;2023-08-21T06:32:57;4.32;;;3.40;;
77076;SDS011;66003;52.286;104.306;2023-08-21T06:35:23;3.92;;;1.77;;
77076;SDS011;66003;52.286;104.306;2023-08-21T06:37:49;4.85;;;2.65;;
77076;SDS011;66003;52.286;104.306;2023-08-21T06:40:15;3.88;;;2.42;;
77076;SDS011;66003;52.286;104.306;2023-08-21T06:42:41;5.07;;;2.78;;
77076;SDS011;66003;52.286;104.306;2023-08-21T06:45:08;4.78;;;3.50;;
77076;SDS011;66003;52.286;104.306;2023-08-21T06:47:34;4.93;;;2.88;;
77076;SDS011;66003;52.286;104.306;2023-08-21T06:50:00;5.03;;;3.33;;
77076;SDS011;66003;52.286;104.306;2023-08-21T06:52:29;4.80;;;2.80;;
77076;SDS011;66003;52.286;104.306;2023-08-21T06:54:55;4.90;;;2.88;;
77076;SDS011;66003;52.286;104.306;2023-08-21T06:57:21;5.32;;;2.65;;
77076;SDS011;66003;52.286;104.306;2023-08-21T06:59:47;8.27;;;3.58;;
77076;SDS011;66003;52.286;104.306;2023-08-21T07:02:13;7.38;;;3.17;;
77076;SDS011;66003;52.286;104.306;2023-08-21T07:04:39;6.43;;;3.38;;
77076;SDS011;66003;52.286;104.306;2023-08-21T07:07:05;6.35;;;4.07;;
77076;SDS011;66003;52.286;104.306;2023-08-21T07:09:32;5.57;;;2.90;;
77076;SDS011;66003;52.286;104.306;2023-08-21T07:11:58;4.82;;;4.40;;
77076;SDS011;66003;52.286;104.306;2023-08-21T07:14:24;5.18;;;4.68;;
77076;SDS011;66003;52.286;104.306;2023-08-21T07:16:50;5.20;;;2.97;;
77076;SDS011;66003;52.286;104.306;2023-08-21T07:19:16;4.63;;;4.20;;
77076;SDS011;66003;52.286;104.306;2023-08-21T07:21:42;4.45;;;4.05;;
77076;SDS011;66003;52.286;104.306;2023-08-21T07:24:18;5.13;;;3.90;;
77076;SDS011;66003;52.286;104.306;2023-08-21T07:26:44;4.72;;;4.30;;
77076;SDS011;66003;52.286;104.306;2023-08-21T07:29:11;4.30;;;3.42;;
77076;SDS011;66003;52.286;104.306;2023-08-21T07:31:37;8.73;;;5.15;;
77076;SDS011;66003;52.286;104.306;2023-08-21T07:34:03;16.08;;;11.73;;
77076;SDS011;66003;52.286;104.306;2023-08-21T07:36:30;5.75;;;4.80;;
77076;SDS011;66003;52.286;104.306;2023-08-21T07:38:57;7.25;;;5.00;;
77076;SDS011;66003;52.286;104.306;2023-08-21T07:41:23;5.95;;;4.63;;
77076;SDS011;66003;52.286;104.306;2023-08-21T07:43:53;4.40;;;3.58;;
77076;SDS011;66003;52.286;104.306;2023-08-21T07:46:35;5.70;;;5.10;;
77076;SDS011;66003;52.286;104.306;2023-08-21T07:49:01;7.00;;;4.80;;
77076;SDS011;66003;52.286;104.306;2023-08-21T07:51:27;6.55;;;4.82;;
77076;SDS011;66003;52.286;104.306;2023-08-21T07:53:54;5.15;;;4.05;;
77076;SDS011;66003;52.286;104.306;2023-08-21T07:56:20;6.95;;;5.97;;
77076;SDS011;66003;52.286;104.306;2023-08-21T07:58:46;6.30;;;5.57;;
77076;SDS011;66003;52.286;104.306;2023-08-21T08:01:12;6.05;;;4.18;;
77076;SDS011;66003;52.286;104.306;2023-08-21T08:03:39;5.95;;;5.35;;
77076;SDS011;66003;52.286;104.306;2023-08-21T08:06:05;6.63;;;3.45;;
77076;SDS011;66003;52.286;104.306;2023-08-21T08:08:32;9.10;;;4.38;;
77076;SDS011;66003;52.286;104.306;2023-08-21T08:11:02;4.13;;;3.53;;
77076;SDS011;66003;52.286;104.306;2023-08-21T08:13:29;7.15;;;3.50;;
77076;SDS011;66003;52.286;104.306;2023-08-21T08:15:55;7.15;;;4.10;;
77076;SDS011;66003;52.286;104.306;2023-08-21T08:18:22;6.00;;;3.75;;
77076;SDS011;66003;52.286;104.306;2023-08-21T08:20:48;4.82;;;3.30;;
77076;SDS011;66003;52.286;104.306;2023-08-21T08:23:14;4.97;;;3.20;;
77076;SDS011;66003;52.286;104.306;2023-08-21T08:25:40;7.13;;;3.83;;
77076;SDS011;66003;52.286;104.306;2023-08-21T08:28:06;6.72;;;3.03;;
77076;SDS011;66003;52.286;104.306;2023-08-21T08:30:33;4.40;;;3.70;;
77076;SDS011;66003;52.286;104.306;2023-08-21T08:32:59;6.03;;;3.70;;
77076;SDS011;66003;52.286;104.306;2023-08-21T08:35:26;6.13;;;3.45;;
77076;SDS011;66003;52.286;104.306;2023-08-21T08:37:52;5.78;;;3.28;;
77076;SDS011;66003;52.286;104.306;2023-08-21T08:40:18;5.88;;;3.95;;
77076;SDS011;66003;52.286;104.306;2023-08-21T08:42:44;6.53;;;4.68;;
77076;SDS011;66003;52.286;104.306;2023-08-21T08:45:12;6.10;;;3.50;;
77076;SDS011;66003;52.286;104.306;2023-08-21T08:47:41;9.30;;;4.18;;
77076;SDS011;66003;52.286;104.306;2023-08-21T08:50:08;7.55;;;5.07;;
77076;SDS011;66003;52.286;104.306;2023-08-21T08:52:36;10.52;;;4.85;;
77076;SDS011;66003;52.286;104.306;2023-08-21T08:55:05;7.43;;;4.00;;
77076;SDS011;66003;52.286;104.306;2023-08-21T08:57:33;6.50;;;2.58;;
77076;SDS011;66003;52.286;104.306;2023-08-21T09:00:03;6.70;;;4.13;;
77076;SDS011;66003;52.286;104.306;2023-08-21T09:02:32;6.32;;;3.33;;
77076;SDS011;66003;52.286;104.306;2023-08-21T09:04:58;6.00;;;3.53;;
77076;SDS011;66003;52.286;104.306;2023-08-21T09:07:24;5.40;;;3.17;;
77076;SDS011;66003;52.286;104.306;2023-08-21T09:09:51;8.68;;;2.80;;
77076;SDS011;66003;52.286;104.306;2023-08-21T09:12:19;7.10;;;2.60;;
77076;SDS011;66003;52.286;104.306;2023-08-21T09:14:45;6.78;;;3.47;;
77076;SDS011;66003;52.286;104.306;2023-08-21T09:17:12;5.40;;;3.35;;
77076;SDS011;66003;52.286;104.306;2023-08-21T09:19:40;5.60;;;3.67;;
77076;SDS011;66003;52.286;104.306;2023-08-21T09:22:11;6.40;;;3.88;;
77076;SDS011;66003;52.286;104.306;2023-08-21T09:24:59;6.28;;;3.35;;
77076;SDS011;66003;52.286;104.306;2023-08-21T09:27:34;5.05;;;3.00;;
77076;SDS011;66003;52.286;104.306;2023-08-21T09:30:03;8.90;;;3.35;;
77076;SDS011;66003;52.286;104.306;2023-08-21T09:35:20;10.45;;;3.33;;
77076;SDS011;66003;52.286;104.306;2023-08-21T09:37:47;6.90;;;3.42;;
77076;SDS011;66003;52.286;104.306;2023-08-21T09:40:17;6.25;;;3.08;;
77076;SDS011;66003;52.286;104.306;2023-08-21T09:42:43;8.02;;;3.08;;
77076;SDS011;66003;52.286;104.306;2023-08-21T09:45:10;5.55;;;3.20;;
77076;SDS011;66003;52.286;104.306;2023-08-21T09:47:37;6.70;;;3.60;;
77076;SDS011;66003;52.286;104.306;2023-08-21T09:50:04;6.25;;;3.38;;
77076;SDS011;66003;52.286;104.306;2023-08-21T09:55:13;8.30;;;3.00;;
77076;SDS011;66003;52.286;104.306;2023-08-21T09:57:40;6.95;;;3.80;;
77076;SDS011;66003;52.286;104.306;2023-08-21T10:00:10;5.65;;;3.60;;
77076;SDS011;66003;52.286;104.306;2023-08-21T10:02:42;8.30;;;3.53;;
77076;SDS011;66003;52.286;104.306;2023-08-21T10:05:13;5.57;;;3.00;;
77076;SDS011;66003;52.286;104.306;2023-08-21T10:07:41;6.55;;;2.58;;
77076;SDS011;66003;52.286;104.306;2023-08-21T10:10:09;5.47;;;4.10;;
77076;SDS011;66003;52.286;104.306;2023-08-21T10:12:37;7.15;;;2.47;;
77076;SDS011;66003;52.286;104.306;2023-08-21T10:15:03;4.22;;;3.38;;
77076;SDS011;66003;52.286;104.306;2023-08-21T10:17:32;8.95;;;3.53;;
77076;SDS011;66003;52.286;104.306;2023-08-21T10:20:03;9.30;;;3.10;;
77076;SDS011;66003;52.286;104.306;2023-08-21T10:25:15;8.93;;;2.72;;
77076;SDS011;66003;52.286;104.306;2023-08-21T10:27:42;5.13;;;2.80;;
77076;SDS011;66003;52.286;104.306;2023-08-21T10:30:15;4.63;;;2.50;;
77076;SDS011;66003;52.286;104.306;2023-08-21T10:32:46;6.70;;;3.28;;
77076;SDS011;66003;52.286;104.306;2023-08-21T10:35:14;4.88;;;2.42;;
77076;SDS011;66003;52.286;104.306;2023-08-21T10:40:38;3.97;;;2.65;;
77076;SDS011;66003;52.286;104.306;2023-08-21T10:43:36;5.30;;;3.13;;
77076;SDS011;66003;52.286;104.306;2023-08-21T10:46:05;4.75;;;3.10;;
77076;SDS011;66003;52.286;104.306;2023-08-21T10:48:31;4.70;;;2.55;;
77076;SDS011;66003;52.286;104.306;2023-08-21T10:50:59;4.47;;;2.15;;
77076;SDS011;66003;52.286;104.306;2023-08-21T10:53:27;7.53;;;3.00;;
77076;SDS011;66003;52.286;104.306;2023-08-21T10:55:54;3.13;;;1.90;;
77076;SDS011;66003;52.286;104.306;2023-08-21T10:58:20;4.15;;;1.67;;
77076;SDS011;66003;52.286;104.306;2023-08-21T11:00:47;4.93;;;2.60;;
77076;SDS011;66003;52.286;104.306;2023-08-21T11:03:21;5.57;;;3.70;;
77076;SDS011;66003;52.286;104.306;2023-08-21T11:06:09;4.72;;;2.92;;
77076;SDS011;66003;52.286;104.306;2023-08-21T11:08:40;4.93;;;3.00;;
77076;SDS011;66003;52.286;104.306;2023-08-21T11:11:06;6.05;;;3.65;;
77076;SDS011;66003;52.286;104.306;2023-08-21T11:13:32;6.80;;;4.28;;
77076;SDS011;66003;52.286;104.306;2023-08-21T11:16:03;7.30;;;3.85;;
77076;SDS011;66003;52.286;104.306;2023-08-21T11:18:32;3.85;;;2.15;;
77076;SDS011;66003;52.286;104.306;2023-08-21T11:21:06;3.42;;;2.63;;
77076;SDS011;66003;52.286;104.306;2023-08-21T11:23:37;5.00;;;2.70;;
77076;SDS011;66003;52.286;104.306;2023-08-21T11:26:05;3.85;;;3.00;;
77076;SDS011;66003;52.286;104.306;2023-08-21T11:28:31;6.63;;;2.72;;
77076;SDS011;66003;52.286;104.306;2023-08-21T11:30:58;3.22;;;1.73;;
77076;SDS011;66003;52.286;104.306;2023-08-21T11:33:25;3.97;;;2.50;;
77076;SDS011;66003;52.286;104.306;2023-08-21T11:35:54;8.55;;;4.78;;
77076;SDS011;66003;52.286;104.306;2023-08-21T11:38:23;8.80;;;4.28;;
77076;SDS011;66003;52.286;104.306;2023-08-21T11:40:58;17.08;;;9.10;;
77076;SDS011;66003;52.286;104.306;2023-08-21T11:43:35;11.15;;;5.50;;
77076;SDS011;66003;52.286;104.306;2023-08-21T11:46:02;11.82;;;7.13;;
77076;SDS011;66003;52.286;104.306;2023-08-21T11:48:29;9.45;;;5.63;;
77076;SDS011;66003;52.286;104.306;2023-08-21T11:50:56;6.90;;;4.38;;
77076;SDS011;66003;52.286;104.306;2023-08-21T11:53:32;5.68;;;3.78;;
77076;SDS011;66003;52.286;104.306;2023-08-21T11:56:08;4.13;;;3.70;;
77076;SDS011;66003;52.286;104.306;2023-08-21T11:58:39;4.75;;;3.45;;
77076;SDS011;66003;52.286;104.306;2023-08-21T12:01:06;5.95;;;3.53;;
77076;SDS011;66003;52.286;104.306;2023-08-21T12:03:39;5.20;;;3.20;;
77076;SDS011;66003;52.286;104.306;2023-08-21T12:06:06;5.93;;;2.90;;
77076;SDS011;66003;52.286;104.306;2023-08-21T12:08:34;3.30;;;3.00;;
77076;SDS011;66003;52.286;104.306;2023-08-21T12:11:00;4.63;;;3.28;;
77076;SDS011;66003;52.286;104.306;2023-08-21T12:13:27;5.78;;;3.30;;
77076;SDS011;66003;52.286;104.306;2023-08-21T12:15:53;7.70;;;4.72;;
77076;SDS011;66003;52.286;104.306;2023-08-21T12:20:45;9.18;;;3.90;;
77076;SDS011;66003;52.286;104.306;2023-08-21T12:25:37;4.75;;;3.05;;
77076;SDS011;66003;52.286;104.306;2023-08-21T12:28:04;5.45;;;4.07;;
77076;SDS011;66003;52.286;104.306;2023-08-21T12:30:31;5.55;;;3.67;;
77076;SDS011;66003;52.286;104.306;2023-08-21T12:32:57;5.50;;;4.85;;
77076;SDS011;66003;52.286;104.306;2023-08-21T12:35:23;6.53;;;4.40;;
77076;SDS011;66003;52.286;104.306;2023-08-21T12:40:16;9.48;;;5.63;;
77076;SDS011;66003;52.286;104.306;2023-08-21T12:42:50;9.10;;;6.28;;
77076;SDS011;66003;52.286;104.306;2023-08-21T12:45:19;9.90;;;5.40;;
77076;SDS011;66003;52.286;104.306;2023-08-21T12:47:50;10.40;;;5.45;;
77076;SDS011;66003;52.286;104.306;2023-08-21T12:50:16;11.57;;;5.82;;
77076;SDS011;66003;52.286;104.306;2023-08-21T12:52:42;15.27;;;6.00;;
77076;SDS011;66003;52.286;104.306;2023-08-21T12:55:08;10.82;;;6.45;;
77076;SDS011;66003;52.286;104.306;2023-08-21T12:57:35;13.82;;;7.63;;
77076;SDS011;66003;52.286;104.306;2023-08-21T13:00:01;14.50;;;8.20;;
77076;SDS011;66003;52.286;104.306;2023-08-21T13:02:30;20.05;;;8.88;;
77076;SDS011;66003;52.286;104.306;2023-08-21T13:07:22;14.85;;;8.40;;
77076;SDS011;66003;52.286;104.306;2023-08-21T13:09:48;14.13;;;8.60;;
77076;SDS011;66003;52.286;104.306;2023-08-21T13:12:14;17.77;;;9.52;;
77076;SDS011;66003;52.286;104.306;2023-08-21T13:17:07;15.57;;;8.63;;
77076;SDS011;66003;52.286;104.306;2023-08-21T13:19:33;18.13;;;9.38;;
77076;SDS011;66003;52.286;104.306;2023-08-21T13:21:59;17.33;;;9.57;;
77076;SDS011;66003;52.286;104.306;2023-08-21T13:24:25;18.88;;;9.68;;
77076;SDS011;66003;52.286;104.306;2023-08-21T13:26:53;16.10;;;10.18;;
77076;SDS011;66003;52.286;104.306;2023-08-21T13:29:19;20.10;;;11.20;;
77076;SDS011;66003;52.286;104.306;2023-08-21T13:31:45;14.90;;;6.82;;
77076;SDS011;66003;52.286;104.306;2023-08-21T13:34:12;14.25;;;8.48;;
77076;SDS011;66003;52.286;104.306;2023-08-21T13:36:38;15.10;;;8.95;;
77076;SDS011;66003;52.286;104.306;2023-08-21T13:39:04;16.13;;;9.43;;
77076;SDS011;66003;52.286;104.306;2023-08-21T13:41:31;14.73;;;6.30;;
77076;SDS011;66003;52.286;104.306;2023-08-21T13:43:58;18.98;;;7.80;;
77076;SDS011;66003;52.286;104.306;2023-08-21T13:46:24;15.50;;;7.90;;
77076;SDS011;66003;52.286;104.306;2023-08-21T13:48:54;13.63;;;8.00;;
77076;SDS011;66003;52.286;104.306;2023-08-21T13:51:21;14.68;;;8.30;;
77076;SDS011;66003;52.286;104.306;2023-08-21T13:53:49;17.65;;;10.45;;
77076;SDS011;66003;52.286;104.306;2023-08-21T13:56:16;13.77;;;7.88;;
77076;SDS011;66003;52.286;104.306;2023-08-21T13:58:44;17.08;;;9.88;;
77076;SDS011;66003;52.286;104.306;2023-08-21T14:01:11;12.00;;;7.95;;
77076;SDS011;66003;52.286;104.306;2023-08-21T14:03:37;16.60;;;6.93;;
77076;SDS011;66003;52.286;104.306;2023-08-21T14:06:04;10.25;;;7.03;;
77076;SDS011;66003;52.286;104.306;2023-08-21T14:08:30;11.70;;;7.57;;
77076;SDS011;66003;52.286;104.306;2023-08-21T14:10:56;10.77;;;5.72;;
77076;SDS011;66003;52.286;104.306;2023-08-21T14:13:22;11.05;;;6.60;;
77076;SDS011;66003;52.286;104.306;2023-08-21T14:15:48;15.48;;;8.60;;
77076;SDS011;66003;52.286;104.306;2023-08-21T14:18:15;7.63;;;5.47;;
77076;SDS011;66003;52.286;104.306;2023-08-21T14:20:41;8.07;;;6.90;;
77076;SDS011;66003;52.286;104.306;2023-08-21T14:23:07;11.38;;;7.50;;
77076;SDS011;66003;52.286;104.306;2023-08-21T14:25:33;13.20;;;9.40;;
77076;SDS011;66003;52.286;104.306;2023-08-21T14:30:25;4.78;;;4.13;;
77076;SDS011;66003;52.286;104.306;2023-08-21T14:32:51;7.07;;;5.63;;
77076;SDS011;66003;52.286;104.306;2023-08-21T14:35:17;5.15;;;3.80;;
77076;SDS011;66003;52.286;104.306;2023-08-21T14:37:44;6.13;;;3.40;;
77076;SDS011;66003;52.286;104.306;2023-08-21T14:40:10;10.00;;;4.65;;
77076;SDS011;66003;52.286;104.306;2023-08-21T14:45:03;5.43;;;2.95;;
77076;SDS011;66003;52.286;104.306;2023-08-21T14:47:30;6.40;;;5.45;;
77076;SDS011;66003;52.286;104.306;2023-08-21T14:49:57;5.93;;;3.25;;
77076;SDS011;66003;52.286;104.306;2023-08-21T14:52:23;3.78;;;2.78;;
77076;SDS011;66003;52.286;104.306;2023-08-21T14:54:50;5.22;;;4.20;;